createdAt,value
2019-01-27T00:00:41.952Z,68.85
2019-01-27T00:01:45.249Z,68.76
2019-01-27T00:02:41.329Z,68.66
2019-01-27T00:03:42.404Z,68.10
2019-01-27T00:04:45.411Z,67.81
2019-01-27T00:05:48.438Z,67.62
2019-01-27T00:06:45.449Z,66.96
2019-01-27T00:07:43.900Z,66.39
2019-01-27T00:08:43.899Z,66.10
2019-01-27T00:10:04.932Z,65.82
2019-01-27T00:10:42.539Z,65.63
2019-01-27T00:11:42.628Z,65.06
2019-01-27T00:12:42.836Z,64.87
2019-01-27T00:13:44.899Z,64.40
2019-01-27T00:14:46.859Z,65.06
2019-01-27T00:15:44.476Z,64.40
2019-01-27T00:16:45.660Z,64.59
2019-01-27T00:17:43.693Z,64.49
2019-01-27T00:18:43.903Z,64.40
2019-01-27T00:19:45.895Z,64.68
2019-01-27T00:20:46.915Z,64.68
2019-01-27T00:21:44.465Z,64.78
2019-01-27T00:22:46.402Z,64.49
2019-01-27T00:23:44.717Z,65.25
2019-01-27T00:24:47.769Z,65.44
2019-01-27T00:25:45.084Z,65.72
2019-01-27T00:26:45.174Z,65.82
2019-01-27T00:27:46.905Z,65.82
2019-01-27T00:28:52.435Z,65.53
2019-01-27T00:29:48.415Z,65.44
2019-01-27T00:30:45.985Z,65.72
2019-01-27T00:32:08.896Z,65.34
2019-01-27T00:32:46.373Z,65.25
2019-01-27T00:33:49.375Z,65.34
2019-01-27T00:34:48.415Z,64.97
2019-01-27T00:35:46.883Z,65.06
2019-01-27T00:36:47.087Z,65.06
2019-01-27T00:37:51.912Z,65.44
2019-01-27T00:38:51.396Z,65.16
2019-01-27T00:39:49.406Z,65.63
2019-01-27T00:40:47.888Z,65.25
2019-01-27T00:41:49.949Z,65.25
2019-01-27T00:42:49.893Z,65.16
2019-01-27T00:44:12.922Z,65.06
2019-01-27T00:44:49.919Z,65.25
2019-01-27T00:45:50.430Z,65.25
2019-01-27T00:46:50.397Z,65.25
2019-01-27T00:47:50.395Z,65.16
2019-01-27T00:48:48.984Z,64.59
2019-01-27T00:49:49.221Z,64.59
2019-01-27T00:50:52.899Z,64.59
2019-01-27T00:51:53.395Z,64.59
2019-01-27T00:52:51.151Z,64.49
2019-01-27T00:55:26.306Z,64.40
2019-01-27T00:56:25.968Z,64.78
2019-01-27T00:57:22.765Z,64.87
2019-01-27T00:58:21.965Z,65.34
2019-01-27T00:59:22.202Z,65.53
2019-01-27T01:00:22.366Z,65.53
2019-01-27T01:01:22.590Z,66.10
2019-01-27T01:02:43.850Z,66.39
2019-01-27T01:03:38.858Z,66.58
2019-01-27T01:04:25.905Z,66.20
2019-01-27T01:05:24.297Z,66.39
2019-01-27T01:06:26.877Z,66.58
2019-01-27T01:07:25.360Z,66.29
2019-01-27T01:08:23.687Z,66.01
2019-01-27T01:09:23.905Z,66.01
2019-01-27T01:10:46.859Z,65.82
2019-01-27T01:11:24.289Z,66.48
2019-01-27T01:12:25.509Z,65.82
2019-01-27T01:13:48.370Z,65.82
2019-01-27T01:14:26.848Z,65.53
2019-01-27T01:15:26.865Z,66.29
2019-01-27T01:16:25.320Z,66.39
2019-01-27T01:17:25.528Z,65.82
2019-01-27T01:18:27.353Z,66.01
2019-01-27T01:19:27.849Z,65.91
2019-01-27T01:20:33.852Z,66.10
2019-01-27T01:21:26.225Z,66.10
2019-01-27T01:22:34.748Z,66.67
2019-01-27T01:23:26.592Z,66.29
2019-01-27T01:24:26.734Z,66.20
2019-01-27T01:25:30.860Z,66.77
2019-01-27T01:26:27.261Z,66.10
2019-01-27T01:27:34.876Z,66.10
2019-01-27T01:28:30.424Z,66.48
2019-01-27T01:29:29.361Z,66.20
2019-01-27T01:30:27.820Z,66.01
2019-01-27T01:31:29.022Z,65.91
2019-01-27T01:32:28.266Z,65.63
2019-01-27T01:33:29.862Z,65.63
2019-01-27T01:34:36.357Z,65.63
2019-01-27T01:35:28.711Z,65.72
2019-01-27T01:36:30.955Z,66.10
2019-01-27T01:37:29.151Z,65.63
2019-01-27T01:38:29.357Z,65.63
2019-01-27T01:39:30.555Z,66.10
2019-01-27T01:40:31.359Z,66.20
2019-01-27T01:41:29.932Z,66.01
2019-01-27T01:42:34.578Z,65.91
2019-01-27T01:43:30.271Z,66.20
2019-01-27T01:44:31.476Z,66.01
2019-01-27T01:45:32.346Z,66.01
2019-01-27T01:46:34.366Z,65.72
2019-01-27T01:47:30.947Z,65.63
2019-01-27T01:48:32.092Z,65.72
2019-01-27T01:49:32.853Z,65.53
2019-01-27T01:50:34.851Z,65.82
2019-01-27T01:51:35.401Z,65.63
2019-01-27T01:52:47.360Z,65.63
2019-01-27T01:53:32.844Z,65.91
2019-01-27T01:54:33.891Z,65.34
2019-01-27T01:55:33.888Z,65.44
2019-01-27T01:56:34.867Z,65.63
2019-01-27T01:57:48.375Z,65.44
2019-01-27T01:58:32.707Z,65.25
2019-01-27T01:59:32.909Z,65.34
2019-01-27T02:00:34.879Z,65.44
2019-01-27T02:01:34.873Z,65.34
2019-01-27T02:02:36.304Z,65.72
2019-01-27T02:03:40.364Z,64.97
2019-01-27T02:04:54.680Z,64.97
2019-01-27T02:05:35.896Z,64.78
2019-01-27T02:06:46.122Z,64.78
2019-01-27T02:07:40.868Z,63.92
2019-01-27T02:08:42.351Z,63.17
2019-01-27T02:09:42.351Z,63.17
2019-01-27T02:10:36.354Z,63.45
2019-01-27T02:11:38.572Z,63.54
2019-01-27T02:12:41.855Z,62.88
2019-01-27T02:13:37.878Z,63.17
2019-01-27T02:14:35.341Z,62.69
2019-01-27T02:15:36.574Z,62.88
2019-01-27T02:16:37.066Z,62.78
2019-01-27T02:17:37.850Z,62.69
2019-01-27T02:18:37.876Z,62.88
2019-01-27T02:19:37.853Z,62.78
2019-01-27T02:20:38.358Z,62.40
2019-01-27T02:21:44.310Z,62.50
2019-01-27T02:22:36.772Z,62.02
2019-01-27T02:23:38.849Z,62.40
2019-01-27T02:24:38.851Z,63.26
2019-01-27T02:25:38.849Z,63.45
2019-01-27T02:26:41.408Z,63.54
2019-01-27T02:27:37.738Z,63.54
2019-01-27T02:29:02.852Z,63.07
2019-01-27T02:29:39.873Z,62.69
2019-01-27T02:30:39.350Z,62.50
2019-01-27T02:31:39.687Z,62.02
2019-01-27T02:32:42.360Z,62.50
2019-01-27T02:33:40.852Z,62.59
2019-01-27T02:35:03.865Z,62.40
2019-01-27T02:35:39.842Z,62.50
2019-01-27T02:36:40.849Z,61.74
2019-01-27T02:37:40.469Z,62.21
2019-01-27T02:39:02.362Z,62.40
2019-01-27T02:39:42.417Z,61.74
2019-01-27T02:40:39.877Z,62.21
2019-01-27T02:41:43.852Z,61.83
2019-01-27T02:42:40.348Z,61.74
2019-01-27T02:43:44.626Z,62.21
2019-01-27T02:44:44.353Z,62.15
2019-01-27T02:45:40.866Z,62.24
2019-01-27T02:46:42.103Z,61.96
2019-01-27T02:47:43.815Z,62.88
2019-01-27T02:48:41.403Z,62.78
2019-01-27T02:49:43.368Z,62.88
2019-01-27T02:50:43.353Z,62.21
2019-01-27T02:51:43.001Z,62.97
2019-01-27T02:52:42.093Z,62.59
2019-01-27T02:53:43.850Z,62.78
2019-01-27T02:54:46.405Z,62.78
2019-01-27T02:55:44.366Z,63.39
2019-01-27T02:56:46.357Z,62.91
2019-01-27T02:57:46.862Z,63.10
2019-01-27T02:58:44.152Z,63.01
2019-01-27T02:59:44.858Z,63.29
2019-01-27T03:00:44.859Z,63.10
2019-01-27T03:01:47.352Z,63.20
2019-01-27T03:02:45.353Z,62.91
2019-01-27T03:03:47.360Z,63.20
2019-01-27T03:04:43.819Z,63.07
2019-01-27T03:06:06.826Z,62.43
2019-01-27T03:06:45.857Z,62.53
2019-01-27T03:08:07.355Z,62.82
2019-01-27T03:08:46.379Z,62.43
2019-01-27T03:09:47.306Z,62.05
2019-01-27T03:10:46.908Z,62.15
2019-01-27T03:11:46.926Z,61.87
2019-01-27T03:12:45.277Z,62.34
2019-01-27T03:13:47.358Z,62.02
2019-01-27T03:14:52.372Z,61.87
2019-01-27T03:15:49.377Z,61.68
2019-01-27T03:16:47.857Z,61.49
2019-01-27T03:17:49.867Z,61.49
2019-01-27T03:18:46.307Z,61.20
2019-01-27T03:19:47.560Z,61.11
2019-01-27T03:20:46.650Z,60.92
2019-01-27T03:21:48.351Z,61.11
2019-01-27T03:22:46.933Z,61.01
2019-01-27T03:23:50.855Z,61.11
2019-01-27T03:24:47.317Z,60.82
2019-01-27T03:26:09.550Z,60.92
2019-01-27T03:26:47.612Z,60.63
2019-01-27T03:27:49.369Z,60.35
2019-01-27T03:28:49.865Z,61.01
2019-01-27T03:29:49.874Z,60.82
2019-01-27T03:30:49.889Z,60.53
2019-01-27T03:31:50.514Z,59.97
2019-01-27T03:32:50.359Z,59.97
2019-01-27T03:33:48.797Z,59.66
2019-01-27T03:34:50.863Z,59.78
2019-01-27T03:35:49.193Z,59.40
2019-01-27T03:36:53.409Z,58.92
2019-01-27T03:37:52.310Z,59.40
2019-01-27T03:38:51.354Z,59.97
2019-01-27T03:39:51.875Z,60.06
2019-01-27T03:40:56.860Z,59.59
2019-01-27T03:41:53.852Z,59.78
2019-01-27T03:42:52.353Z,59.49
2019-01-27T03:43:52.730Z,59.30
2019-01-27T03:44:52.278Z,59.11
2019-01-27T03:45:52.855Z,59.97
2019-01-27T03:46:52.837Z,59.68
2019-01-27T03:47:51.169Z,60.06
2019-01-27T03:48:59.366Z,59.78
2019-01-27T03:49:55.355Z,59.40
2019-01-27T03:50:54.846Z,59.78
2019-01-27T03:51:51.806Z,59.59
2019-01-27T03:53:00.828Z,59.68
2019-01-27T03:53:52.807Z,59.78
2019-01-27T03:54:52.427Z,60.16
2019-01-27T03:55:54.358Z,60.16
2019-01-27T03:56:54.352Z,60.16
2019-01-27T03:57:54.861Z,59.97
2019-01-27T03:58:53.063Z,60.53
2019-01-27T03:59:54.301Z,60.44
2019-01-27T04:00:53.426Z,61.11
2019-01-27T04:01:54.646Z,59.68
2019-01-27T04:02:56.273Z,59.78
2019-01-27T04:05:29.608Z,60.06
2019-01-27T04:06:26.045Z,59.97
2019-01-27T04:07:26.244Z,59.30
2019-01-27T04:08:26.440Z,60.16
2019-01-27T04:09:30.614Z,60.25
2019-01-27T04:10:47.818Z,59.97
2019-01-27T04:11:28.610Z,59.97
2019-01-27T04:12:29.111Z,59.97
2019-01-27T04:13:28.329Z,59.40
2019-01-27T04:14:29.115Z,59.30
2019-01-27T04:15:29.125Z,59.21
2019-01-27T04:16:27.715Z,58.92
2019-01-27T04:17:27.927Z,59.02
2019-01-27T04:18:30.116Z,58.36
2019-01-27T04:19:31.095Z,58.26
2019-01-27T04:20:44.106Z,57.21
2019-01-27T04:21:35.613Z,57.03
2019-01-27T04:22:28.804Z,56.84
2019-01-27T04:23:29.077Z,57.03
2019-01-27T04:24:31.131Z,56.46
2019-01-27T04:25:31.109Z,55.98
2019-01-27T04:26:29.441Z,55.13
2019-01-27T04:27:31.651Z,54.75
2019-01-27T04:28:31.615Z,54.75
2019-01-27T04:29:31.656Z,54.27
2019-01-27T04:30:46.145Z,54.27
2019-01-27T04:31:30.516Z,53.52
2019-01-27T04:32:32.149Z,52.85
2019-01-27T04:33:33.804Z,52.47
2019-01-27T04:34:32.610Z,51.97
2019-01-27T04:35:35.122Z,52.00
2019-01-27T04:36:42.217Z,51.43
2019-01-27T04:37:32.684Z,50.83
2019-01-27T04:38:31.888Z,50.36
2019-01-27T04:39:33.094Z,50.20
2019-01-27T04:40:32.304Z,50.20
2019-01-27T04:41:34.112Z,49.22
2019-01-27T04:42:34.609Z,49.13
2019-01-27T04:43:35.534Z,48.75
2019-01-27T04:44:34.656Z,48.46
2019-01-27T04:45:46.109Z,47.61
2019-01-27T04:46:37.110Z,47.89
2019-01-27T04:47:54.649Z,46.94
2019-01-27T04:48:35.609Z,46.85
2019-01-27T04:49:35.878Z,47.32
2019-01-27T04:50:34.134Z,46.66
2019-01-27T04:51:34.331Z,46.47
2019-01-27T04:52:38.117Z,46.19
2019-01-27T04:53:34.681Z,45.81
2019-01-27T04:54:34.890Z,45.33
2019-01-27T04:55:35.085Z,44.95
2019-01-27T04:56:37.114Z,45.14
2019-01-27T04:57:37.114Z,44.67
2019-01-27T04:58:51.110Z,44.29
2019-01-27T04:59:35.700Z,44.67
2019-01-27T05:00:39.612Z,43.82
2019-01-27T05:01:38.216Z,43.43
2019-01-27T05:02:36.097Z,43.72
2019-01-27T05:03:36.185Z,43.43
2019-01-27T05:04:39.590Z,43.43
2019-01-27T05:05:38.139Z,42.86
2019-01-27T05:06:36.725Z,43.34
2019-01-27T05:07:36.937Z,43.43
2019-01-27T05:08:37.136Z,43.24
2019-01-27T05:09:40.063Z,42.58
2019-01-27T05:10:37.527Z,42.49
2019-01-27T05:11:39.648Z,42.68
2019-01-27T05:12:37.848Z,42.68
2019-01-27T05:13:39.625Z,42.77
2019-01-27T05:14:38.227Z,42.60
2019-01-27T05:16:07.110Z,42.49
2019-01-27T05:16:40.111Z,41.92
2019-01-27T05:17:38.690Z,42.49
2019-01-27T05:18:40.608Z,42.30
2019-01-27T05:19:45.587Z,42.58
2019-01-27T05:20:39.177Z,41.73
2019-01-27T05:21:43.167Z,41.82
2019-01-27T05:22:41.147Z,41.92
2019-01-27T05:23:44.572Z,41.73
2019-01-27T05:24:55.612Z,41.92
2019-01-27T05:25:41.631Z,41.82
2019-01-27T05:26:44.150Z,41.73
2019-01-27T05:27:44.131Z,41.73
2019-01-27T05:28:40.601Z,41.73
2019-01-27T05:29:40.825Z,41.63
2019-01-27T05:30:42.613Z,41.06
2019-01-27T05:31:41.198Z,41.16
2019-01-27T05:32:41.398Z,41.16
2019-01-27T05:33:45.110Z,41.54
2019-01-27T05:34:43.612Z,41.54
2019-01-27T05:35:47.956Z,41.63
2019-01-27T05:36:44.113Z,41.54
2019-01-27T05:37:44.154Z,41.44
2019-01-27T05:38:42.537Z,41.54
2019-01-27T05:39:42.629Z,41.82
2019-01-27T05:40:46.614Z,41.54
2019-01-27T05:41:43.061Z,41.54
2019-01-27T05:42:45.246Z,41.92
2019-01-27T05:43:43.463Z,41.35
2019-01-27T05:44:45.611Z,40.97
2019-01-27T05:45:43.805Z,40.78
2019-01-27T05:46:45.050Z,41.06
2019-01-27T05:47:44.159Z,40.50
2019-01-27T05:48:44.399Z,40.12
2019-01-27T05:49:48.132Z,40.02
2019-01-27T05:50:52.615Z,40.12
2019-01-27T05:51:44.927Z,40.40
2019-01-27T05:52:47.114Z,40.21
2019-01-27T05:53:46.329Z,40.02
2019-01-27T05:54:53.113Z,40.21
2019-01-27T05:55:47.112Z,40.21
2019-01-27T05:56:47.611Z,40.12
2019-01-27T05:57:45.927Z,39.73
2019-01-27T05:58:46.133Z,39.83
2019-01-27T05:59:47.370Z,40.12
2019-01-27T06:00:49.071Z,39.36
2019-01-27T06:02:07.659Z,39.36
2019-01-27T06:02:48.616Z,38.79
2019-01-27T06:03:48.622Z,38.69
2019-01-27T06:05:10.072Z,38.98
2019-01-27T06:05:47.389Z,38.79
2019-01-27T06:06:49.110Z,38.69
2019-01-27T06:07:47.814Z,38.89
2019-01-27T06:08:50.571Z,38.69
2019-01-27T06:09:48.206Z,38.89
2019-01-27T06:10:50.111Z,38.98
2019-01-27T06:11:50.137Z,39.17
2019-01-27T06:13:00.374Z,39.26
2019-01-27T06:13:49.817Z,39.54
2019-01-27T06:14:50.612Z,40.21
2019-01-27T06:15:51.107Z,40.31
2019-01-27T06:16:50.324Z,40.50
2019-01-27T06:17:49.514Z,40.31
2019-01-27T06:18:49.711Z,40.12
2019-01-27T06:19:51.614Z,40.31
2019-01-27T06:20:53.648Z,40.21
2019-01-27T06:21:51.236Z,40.02
2019-01-27T06:22:50.450Z,40.02
2019-01-27T06:23:50.691Z,39.54
2019-01-27T06:24:50.823Z,39.83
2019-01-27T06:25:50.920Z,39.45
2019-01-27T06:26:58.161Z,39.45
2019-01-27T06:27:53.119Z,39.45
2019-01-27T06:28:53.113Z,39.36
2019-01-27T06:29:51.577Z,39.45
2019-01-27T06:30:53.616Z,39.73
2019-01-27T06:31:53.610Z,40.02
2019-01-27T06:32:52.064Z,40.02
2019-01-27T06:33:54.110Z,39.83
2019-01-27T06:34:52.434Z,39.45
2019-01-27T06:35:54.612Z,39.45
2019-01-27T06:36:53.855Z,39.83
2019-01-27T06:37:52.945Z,39.92
2019-01-27T07:06:32.386Z,42.49
2019-01-27T07:07:32.383Z,42.51
2019-01-27T07:08:29.415Z,42.03
2019-01-27T07:09:45.344Z,42.11
2019-01-27T07:10:30.339Z,42.03
2019-01-27T07:11:29.909Z,42.41
2019-01-27T07:12:29.996Z,42.41
2019-01-27T07:13:32.006Z,42.41
2019-01-27T07:14:29.485Z,42.70
2019-01-27T07:15:32.385Z,42.51
2019-01-27T07:16:28.839Z,42.41
2019-01-27T07:17:30.883Z,42.32
2019-01-27T07:18:30.206Z,42.60
2019-01-27T07:19:46.884Z,42.60
2019-01-27T07:20:29.661Z,42.51
2019-01-27T07:21:33.384Z,43.36
2019-01-27T07:22:31.093Z,42.51
2019-01-27T07:23:37.886Z,42.70
2019-01-27T07:24:31.876Z,43.08
2019-01-27T07:25:30.607Z,43.65
2019-01-27T07:26:34.391Z,43.46
2019-01-27T07:27:35.834Z,43.46
2019-01-27T07:28:31.843Z,43.27
2019-01-27T07:29:34.932Z,43.46
2019-01-27T07:30:33.407Z,43.46
2019-01-27T07:31:32.086Z,43.36
2019-01-27T07:32:33.384Z,42.79
2019-01-27T07:33:33.884Z,43.36
2019-01-27T07:34:33.894Z,44.31
2019-01-27T07:35:32.214Z,44.50
2019-01-27T07:36:34.394Z,44.88
2019-01-27T07:37:32.631Z,45.64
2019-01-27T07:38:40.207Z,45.64
2019-01-27T07:39:32.974Z,46.11
2019-01-27T07:40:36.887Z,46.11
2019-01-27T07:41:55.880Z,46.40
2019-01-27T07:42:33.563Z,46.30
2019-01-27T07:43:56.381Z,46.11
2019-01-27T07:44:35.885Z,46.88
2019-01-27T07:45:35.885Z,47.06
2019-01-27T07:46:35.932Z,46.88
2019-01-27T07:47:39.973Z,47.06
2019-01-27T07:48:56.535Z,47.06
2019-01-27T07:49:38.379Z,46.97
2019-01-27T07:50:36.885Z,47.16
2019-01-27T07:51:36.880Z,46.88
2019-01-27T07:52:47.899Z,46.59
2019-01-27T07:53:36.922Z,46.49
2019-01-27T07:54:42.420Z,46.69
2019-01-27T07:55:35.624Z,46.21
2019-01-27T07:56:37.435Z,46.49
2019-01-27T07:57:37.902Z,46.49
2019-01-27T07:58:58.891Z,46.11
2019-01-27T07:59:42.426Z,46.40
2019-01-27T08:00:37.371Z,46.69
2019-01-27T08:01:37.848Z,46.88
2019-01-27T08:02:40.888Z,47.06
2019-01-27T08:03:38.887Z,47.16
2019-01-27T08:04:39.383Z,46.97
2019-01-27T08:05:37.584Z,47.53
2019-01-27T08:06:44.435Z,48.01
2019-01-27T08:07:37.890Z,48.11
2019-01-27T08:08:39.913Z,48.11
2019-01-27T08:09:45.893Z,48.58
2019-01-27T08:12:15.579Z,48.01
2019-01-27T08:13:22.151Z,46.78
2019-01-27T08:14:14.535Z,46.11
2019-01-27T08:24:14.358Z,46.78
2019-01-27T08:24:58.039Z,46.88
2019-01-27T08:25:54.699Z,47.25
2019-01-27T08:27:19.047Z,47.73
2019-01-27T08:27:51.941Z,48.20
2019-01-27T08:29:07.019Z,49.72
2019-01-27T08:34:34.398Z,53.04
2019-01-27T08:35:37.449Z,52.97
2019-01-27T08:36:31.943Z,53.52
2019-01-27T08:37:34.905Z,53.54
2019-01-27T08:38:33.965Z,53.42
2019-01-27T08:39:37.473Z,53.14
2019-01-27T08:40:32.411Z,52.85
2019-01-27T08:41:53.471Z,53.04
2019-01-27T08:42:34.967Z,53.14
2019-01-27T08:43:38.906Z,52.78
2019-01-27T08:44:32.925Z,52.47
2019-01-27T08:45:33.433Z,52.76
2019-01-27T08:46:32.119Z,53.42
2019-01-27T08:47:34.916Z,54.02
2019-01-27T08:48:34.915Z,54.11
2019-01-27T08:49:33.911Z,55.06
2019-01-27T08:50:58.523Z,55.82
2019-01-27T08:51:33.605Z,56.29
2019-01-27T08:52:34.386Z,56.10
2019-01-27T08:53:41.366Z,56.20
2019-01-27T08:54:36.142Z,56.10
2019-01-27T08:55:57.955Z,56.20
2019-01-27T08:56:34.920Z,55.91
2019-01-27T08:57:35.384Z,56.77
2019-01-27T09:00:31.932Z,56.68
2019-01-27T09:01:08.489Z,56.96
2019-01-27T09:02:08.101Z,59.05
2019-01-27T09:03:14.046Z,58.29
2019-01-27T09:04:09.017Z,58.86
2019-01-27T09:05:10.529Z,58.86
2019-01-27T09:06:09.267Z,57.91
2019-01-27T09:07:13.493Z,59.05
2019-01-27T09:17:45.561Z,58.20
2019-01-27T09:18:23.081Z,58.95
2019-01-27T09:20:56.768Z,60.00
2019-01-27T09:22:01.439Z,59.52
2019-01-27T09:22:54.915Z,60.00
2019-01-27T09:24:08.289Z,60.57
2019-01-27T09:25:04.578Z,61.71
2019-01-27T09:25:56.265Z,61.71
2019-01-27T09:26:56.729Z,63.23
2019-01-27T09:27:54.836Z,62.94
2019-01-27T09:28:54.767Z,63.42
2019-01-27T09:29:55.315Z,64.17
2019-01-27T09:30:55.625Z,64.56
2019-01-27T09:33:29.033Z,65.12
2019-01-27T09:34:49.284Z,64.56
2019-01-27T09:35:28.746Z,64.46
2019-01-27T09:36:28.262Z,64.65
2019-01-27T09:37:27.289Z,65.03
2019-01-27T09:38:28.293Z,65.22
2019-01-27T09:39:28.251Z,65.50
2019-01-27T09:40:27.906Z,65.31
2019-01-27T09:41:28.792Z,65.98
2019-01-27T09:42:30.848Z,65.25
2019-01-27T09:44:05.259Z,67.21
2019-01-27T09:44:56.371Z,67.53
2019-01-27T09:45:29.514Z,66.55
2019-01-27T09:46:29.248Z,67.34
2019-01-27T09:47:30.803Z,67.21
2019-01-27T09:48:53.872Z,67.40
2019-01-27T09:49:29.263Z,68.07
2019-01-27T09:50:28.434Z,67.82
2019-01-27T09:51:36.009Z,67.79
2019-01-27T09:52:50.350Z,67.50
2019-01-27T09:53:30.856Z,68.16
2019-01-27T09:54:29.988Z,68.19
2019-01-27T09:55:42.257Z,68.77
2019-01-27T09:56:30.761Z,69.53
2019-01-27T09:57:31.330Z,68.86
2019-01-27T09:58:46.745Z,70.00
2019-01-27T09:59:31.755Z,69.24
2019-01-27T10:00:37.787Z,70.48
2019-01-27T10:01:38.297Z,69.71
2019-01-27T10:02:47.250Z,70.38
2019-01-27T10:03:30.868Z,69.91
2019-01-27T10:04:46.806Z,69.81
2019-01-27T10:05:34.810Z,71.14
2019-01-27T10:06:33.799Z,70.86
2019-01-27T10:07:47.296Z,70.95
2019-01-27T10:08:33.307Z,70.00
2019-01-27T10:09:38.069Z,72.85
2019-01-27T10:11:08.792Z,72.19
2019-01-27T10:11:36.294Z,72.28
2019-01-27T10:12:32.521Z,71.71
2019-01-27T10:13:32.721Z,71.04
2019-01-27T10:14:34.871Z,73.14
2019-01-27T10:17:09.527Z,71.90
2019-01-27T10:18:09.301Z,71.62
2019-01-27T10:19:13.366Z,72.38
2019-01-27T10:20:06.579Z,73.71
2019-01-27T10:21:29.879Z,74.27
2019-01-27T10:22:26.910Z,74.08
2019-01-27T10:23:13.735Z,73.52
2019-01-27T10:24:13.810Z,72.28
2019-01-27T10:25:07.467Z,72.38
2019-01-27T10:26:08.591Z,74.85
2019-01-27T10:27:06.705Z,72.75
2019-01-27T10:28:09.733Z,71.62
2019-01-27T10:29:10.525Z,71.90
2019-01-27T10:30:11.259Z,71.14
2019-01-27T10:31:10.218Z,71.81
2019-01-27T10:32:15.286Z,74.47
2019-01-27T10:33:11.750Z,73.14
2019-01-27T10:34:09.523Z,74.18
2019-01-27T10:35:10.507Z,75.23
2019-01-27T10:36:11.216Z,75.70
2019-01-27T10:37:12.214Z,74.75
2019-01-27T10:38:16.301Z,76.27
2019-01-27T10:39:08.921Z,75.42
2019-01-27T10:40:39.577Z,77.03
2019-01-27T10:41:12.833Z,75.42
2019-01-27T10:42:12.219Z,75.70
2019-01-27T10:43:11.791Z,75.32
2019-01-27T10:44:12.213Z,73.33
2019-01-27T10:45:13.958Z,72.75
2019-01-27T10:46:11.095Z,72.00
2019-01-27T10:47:13.765Z,71.04
2019-01-27T10:48:12.778Z,73.23
2019-01-27T10:49:15.216Z,74.47
2019-01-27T10:52:06.097Z,73.52
2019-01-27T10:52:46.283Z,75.13
2019-01-27T10:53:42.799Z,75.23
2019-01-27T10:55:07.145Z,76.56
2019-01-27T10:55:50.298Z,75.04
2019-01-27T10:56:51.212Z,76.08
2019-01-27T10:57:45.525Z,76.37
2019-01-27T10:59:05.785Z,76.18
2019-01-27T10:59:47.725Z,76.18
2019-01-27T11:00:45.720Z,76.08
2019-01-27T11:01:45.331Z,76.93
2019-01-27T11:02:46.177Z,76.08
2019-01-27T11:03:48.588Z,75.13
2019-01-27T11:06:22.619Z,74.47
2019-01-27T11:07:21.117Z,74.47
2019-01-27T11:08:32.927Z,75.04
2019-01-27T11:09:32.954Z,75.04
2019-01-27T11:10:22.385Z,75.70
2019-01-27T11:13:04.110Z,74.18
2019-01-27T11:13:54.118Z,73.23
2019-01-27T11:14:49.692Z,73.04
2019-01-27T11:15:54.591Z,74.18
2019-01-27T11:16:52.676Z,76.18
2019-01-27T11:17:51.122Z,76.18
2019-01-27T11:18:51.463Z,76.18
2019-01-27T11:19:50.767Z,76.75
2019-01-27T11:20:54.613Z,77.03
2019-01-27T11:21:55.475Z,75.89
2019-01-27T11:22:53.094Z,75.23
2019-01-27T11:23:53.199Z,76.65
2019-01-27T11:24:58.065Z,75.89
2019-01-27T11:26:16.619Z,76.08
2019-01-27T11:27:21.601Z,74.94
2019-01-27T11:29:49.374Z,76.12
2019-01-27T11:30:24.971Z,79.92
2019-01-27T11:31:24.134Z,80.93
2019-01-27T11:32:53.073Z,79.25
2019-01-27T11:33:28.069Z,79.06
2019-01-27T11:34:29.658Z,80.02
2019-01-27T11:35:25.877Z,79.92
2019-01-27T11:36:28.550Z,79.73
2019-01-27T11:37:27.125Z,79.31
2019-01-27T11:38:29.378Z,79.22
2019-01-27T11:39:41.260Z,77.26
2019-01-27T11:40:28.986Z,77.60
2019-01-27T11:41:29.560Z,78.45
2019-01-27T11:42:28.485Z,77.41
2019-01-27T11:43:28.007Z,76.84
2019-01-27T11:44:30.040Z,77.70
2019-01-27T11:45:26.564Z,75.89
2019-01-27T11:46:43.502Z,76.84
2019-01-27T11:49:04.109Z,79.73
2019-01-27T11:50:01.541Z,81.54
2019-01-27T11:51:02.413Z,79.92
2019-01-27T11:52:22.102Z,78.69
2019-01-27T11:53:00.311Z,81.82
2019-01-27T11:54:24.083Z,81.35
2019-01-27T11:55:01.587Z,81.35
2019-01-27T11:55:59.860Z,80.11
2019-01-27T11:57:03.602Z,82.58
2019-01-27T11:58:02.093Z,80.58
2019-01-27T11:59:01.062Z,79.92
2019-01-27T12:00:17.540Z,79.54
2019-01-27T12:01:02.572Z,79.92
2019-01-27T12:02:17.608Z,82.68
2019-01-27T12:03:24.031Z,80.87
2019-01-27T12:05:37.332Z,84.62
2019-01-27T12:06:34.966Z,85.57
2019-01-27T12:07:34.409Z,86.24
2019-01-27T12:08:33.631Z,86.24
2019-01-27T12:09:35.417Z,85.81
2019-01-27T12:10:39.896Z,86.10
2019-01-27T12:11:36.258Z,88.00
2019-01-27T12:12:38.400Z,88.00
2019-01-27T12:13:57.447Z,86.47
2019-01-27T12:14:36.384Z,87.24
2019-01-27T12:15:37.105Z,85.91
2019-01-27T12:16:37.853Z,87.90
2019-01-27T12:17:47.137Z,88.90
2019-01-27T12:18:38.834Z,87.57
2019-01-27T12:19:40.201Z,88.90
2019-01-27T12:20:43.326Z,88.80
2019-01-27T12:21:37.888Z,89.85
2019-01-27T12:22:37.141Z,89.75
2019-01-27T12:23:44.839Z,89.94
2019-01-27T12:24:36.455Z,89.66
2019-01-27T12:25:38.394Z,90.66
2019-01-27T12:26:39.359Z,90.94
2019-01-27T12:27:52.386Z,91.94
2019-01-27T12:28:39.013Z,90.23
2019-01-27T12:29:39.845Z,91.28
2019-01-27T12:30:37.359Z,91.37
2019-01-27T12:31:39.526Z,91.94
2019-01-27T12:32:41.382Z,90.04
2019-01-27T12:34:00.885Z,89.37
2019-01-27T12:34:38.128Z,88.71
2019-01-27T12:35:41.895Z,90.99
2019-01-27T12:36:46.569Z,90.61
2019-01-27T12:37:47.423Z,89.66
2019-01-27T12:38:45.431Z,90.33
2019-01-27T12:39:41.907Z,89.28
2019-01-27T12:40:48.373Z,89.94
2019-01-27T12:41:40.922Z,89.28
2019-01-27T12:42:56.835Z,89.09
2019-01-27T12:43:56.381Z,89.28
2019-01-27T12:44:41.387Z,89.00
2019-01-27T12:45:41.038Z,88.71
2019-01-27T12:46:44.553Z,90.89
2019-01-27T12:49:15.369Z,91.08
2019-01-27T12:50:27.991Z,90.80
2019-01-27T12:52:46.571Z,91.94
2019-01-27T12:53:46.041Z,91.37
2019-01-27T12:54:45.546Z,90.04
2019-01-27T12:55:51.582Z,91.18
2019-01-27T12:56:48.286Z,91.37
2019-01-27T12:57:48.794Z,92.22
2019-01-27T12:58:48.580Z,92.22
2019-01-27T13:00:09.040Z,90.61
2019-01-27T13:00:52.558Z,90.89
2019-01-27T13:02:11.544Z,89.90
2019-01-27T13:02:57.634Z,89.94
2019-01-27T13:04:09.093Z,91.33
2019-01-27T13:04:47.034Z,89.33
2019-01-27T13:06:11.959Z,89.52
2019-01-27T13:06:48.567Z,88.95
2019-01-27T13:07:48.013Z,87.71
2019-01-27T13:08:51.063Z,87.52
2019-01-27T13:10:11.021Z,86.57
2019-01-27T13:11:10.463Z,86.86
2019-01-27T13:11:49.583Z,86.29
2019-01-27T13:12:49.582Z,86.10
2019-01-27T13:13:55.571Z,85.15
2019-01-27T13:14:48.177Z,84.10
2019-01-27T13:15:51.040Z,83.44
2019-01-27T13:16:53.092Z,83.15
2019-01-27T13:17:50.671Z,83.25
2019-01-27T13:18:49.740Z,85.34
2019-01-27T13:19:53.847Z,86.57
2019-01-27T13:20:54.524Z,85.62
2019-01-27T13:21:50.675Z,85.72
2019-01-27T13:22:49.441Z,85.15
2019-01-27T13:23:53.570Z,84.67
2019-01-27T13:24:56.575Z,83.34
2019-01-27T13:25:51.627Z,86.57
2019-01-27T13:26:54.082Z,87.34
2019-01-27T13:27:51.022Z,87.24
2019-01-27T13:28:52.082Z,85.72
2019-01-27T13:29:51.654Z,86.00
2019-01-27T13:30:50.759Z,84.29
2019-01-27T13:31:58.563Z,85.53
2019-01-27T13:32:53.075Z,85.11
2019-01-27T13:33:51.304Z,83.39
2019-01-27T13:34:51.389Z,84.06
2019-01-27T13:35:53.589Z,82.35
2019-01-27T13:36:52.857Z,81.87
2019-01-27T13:37:54.547Z,80.93
2019-01-27T13:38:54.071Z,80.07
2019-01-27T13:39:52.289Z,78.08
2019-01-27T13:40:54.120Z,74.66
2019-01-27T13:41:54.563Z,75.04
2019-01-27T13:42:52.938Z,72.75
2019-01-27T13:43:54.564Z,71.43
2019-01-27T13:44:56.027Z,70.29
2019-01-27T13:45:57.102Z,72.19
2019-01-27T13:46:55.080Z,70.86
2019-01-27T13:47:58.818Z,70.00
2019-01-27T13:48:54.054Z,68.48
2019-01-27T13:50:10.171Z,68.77
2019-01-27T13:50:54.263Z,69.43
2019-01-27T13:51:56.124Z,70.86
2019-01-27T13:52:54.979Z,70.10
2019-01-27T13:54:11.549Z,68.58
2019-01-27T13:54:54.910Z,69.15
2019-01-27T13:55:56.129Z,69.15
2019-01-27T13:56:55.223Z,70.38
2019-01-27T13:57:56.027Z,70.57
2019-01-27T13:58:59.563Z,70.67
2019-01-27T13:59:56.482Z,70.29
2019-01-27T14:00:56.958Z,70.67
2019-01-27T14:01:57.233Z,70.38
2019-01-27T14:02:56.337Z,70.67
2019-01-27T14:04:00.083Z,72.56
2019-01-27T14:04:57.781Z,71.43
2019-01-27T14:06:17.997Z,71.81
2019-01-27T14:07:01.108Z,71.90
2019-01-27T14:07:57.451Z,70.95